Kezdőlap
METAR-TAF:

METAR-TAF

Repülőterek :

Vlagyikavkaz, Oroszország

földrajzi szélesség: 43-12-18N, földrajzi hosszúság: 044-36-24E, magasság: 510 m

Jelenlegi meteorológiai megfigyelések

A jelentés 25 perccel ezelõtt készült, 23:30 UTC
Kelet-délkeleti szél 4 kt
Hőmérséklet 4°C
Páratartalom 87%
Légköri nyomás 1018 hPa
Látótávolság 10 km, vagy több

METAR: URMO 242330Z AUTO 11002MPS 9999 // NCD 04/02 Q1018 RMK QFE720/0960

Idő: 02:55 (23:55 UTC)

Előrejelzés

A jelentés 9 órával és 55 perccel ezelõtt készült, 14:00 UTC
Az előrejelzés 24-én 15 óra UTC és 24-én 24 óra UTC között érvényes
Keleti szél 6 kt széllökések: 16 kt
Látótávolság 10 km, vagy több
Szórványos felhőzet 3000 lábon
24-én 15 óra UTC és 24-én 18 óra UTC között ideiglenes
Különbözõ irányokból fújó szél 2 kt

TAF: URMO 241400Z 2415/2424 08003G08MPS 9999 SCT030 TEMPO 2415/2418 VRB01MPS

Meteorológiai megfigyelések és előrejelzések több, mint 4000 repülőtéren (METAR és TAF jelentéseket).

A térképen piros és sárga pontok jelzik az elérhető meteorológiai állomásokat.

Mozgassa az egeret a pont fölött, hogy megjelenjen az állomás neve.

Azután kattintson az időjárási megfigyelések és előrejelzések megtekintéséhez.

A térkép megváltoztatása: kattintson a fekete keresztel jelölt zöld gombra ráközelítéshez, a vonallal jelölt zöld gombra távolításhoz, vagy a zöld nyilakra a szomszédos térképek eléréséhez.


METAR-TAF: